Time;durP1;ratioP1;P1;durP2;ratioP2;P2;SDS_P1;SDS_P2;PMS_P1;PMS_P2;Temp;Humidity;BMP_temperature;BMP_pressure;BME280_temperature;BME280_humidity;BME280_pressure;Samples;Min_cycle;Max_cycle;Signal;HPM_P1;HPM_P2
2021/12/05 00:23:02;;;;;;;5.32;4.45;;;;;;;;;;5083649;28;20118;-30
2021/12/05 00:25:31;;;;;;;5.38;4.18;;;;;;;;;;5084250;28;20028;-31
2021/12/05 00:44:23;;;;;;;4.65;3.65;;;;;;;;;;5083636;28;20032;-30
2021/12/05 01:11:50;;;;;;;5.82;4.13;;;;;;;;;;5064214;28;20112;-30
2021/12/05 01:16:42;;;;;;;6.40;4.45;;;;;;;;;;5063403;28;20054;-32
2021/12/05 01:19:09;;;;;;;5.93;4.30;;;;;;;;;;5063478;28;20602;-29
2021/12/05 01:21:36;;;;;;;5.60;4.22;;;;;;;;;;5063011;28;20041;-29
2021/12/05 01:24:07;;;;;;;5.30;4.13;;;;;;;;;;5063255;28;20036;-31
2021/12/05 01:29:23;;;;;;;5.25;3.92;;;;;;;;;;5062961;28;20064;-29
2021/12/05 01:37:28;;;;;;;4.75;3.80;;;;;;;;;;5083051;28;20086;-32
2021/12/05 01:40:09;;;;;;;5.07;4.10;;;;;;;;;;5083111;28;20031;-31
2021/12/05 02:41:33;;;;;;;3.67;3.17;;;;;;;;;;5082379;28;20053;-29
2021/12/05 02:44:03;;;;;;;4.88;3.60;;;;;;;;;;5082635;28;20028;-30
2021/12/05 02:46:28;;;;;;;4.00;3.30;;;;;;;;;;5081850;28;20031;-28
2021/12/05 02:48:57;;;;;;;4.57;3.30;;;;;;;;;;5082356;28;20020;-32
2021/12/05 02:51:24;;;;;;;4.70;3.30;;;;;;;;;;5064853;28;20081;-36
2021/12/05 02:54:01;;;;;;;4.05;3.17;;;;;;;;;;5082096;28;20085;-30
2021/12/05 02:56:27;;;;;;;5.38;3.90;;;;;;;;;;5082234;28;20035;-30
2021/12/05 02:58:58;;;;;;;3.97;3.08;;;;;;;;;;5082639;28;20069;-31
2021/12/05 03:01:34;;;;;;;4.15;3.28;;;;;;;;;;5082546;28;20032;-31
2021/12/05 03:04:00;;;;;;;4.25;3.15;;;;;;;;;;5082189;28;20415;-31
2021/12/05 03:06:27;;;;;;;6.45;3.45;;;;;;;;;;5082219;28;20029;-34
2021/12/05 03:08:55;;;;;;;3.67;3.10;;;;;;;;;;5082257;28;20035;-33
2021/12/05 03:11:21;;;;;;;4.00;3.00;;;;;;;;;;5077758;28;20426;-34
2021/12/05 03:13:46;;;;;;;3.92;3.08;;;;;;;;;;5061415;28;20029;-33
2021/12/05 03:16:13;;;;;;;4.25;3.30;;;;;;;;;;5064601;28;20029;-32
2021/12/05 03:18:39;;;;;;;4.03;3.17;;;;;;;;;;5065189;28;20111;-31
2021/12/05 03:21:04;;;;;;;3.70;3.00;;;;;;;;;;5065286;28;20032;-34
2021/12/05 03:23:31;;;;;;;4.18;2.95;;;;;;;;;;5069465;28;20109;-31
2021/12/05 03:25:57;;;;;;;4.65;3.60;;;;;;;;;;5085715;28;20028;-30
2021/12/05 03:28:23;;;;;;;3.70;2.97;;;;;;;;;;5085637;28;20077;-33
2021/12/05 03:30:49;;;;;;;4.07;2.90;;;;;;;;;;5085342;28;20494;-29
2021/12/05 03:33:17;;;;;;;3.92;3.10;;;;;;;;;;5085502;28;20039;-31
2021/12/05 03:35:42;;;;;;;3.58;2.75;;;;;;;;;;5084958;28;20028;-34
2021/12/05 03:38:08;;;;;;;4.00;3.17;;;;;;;;;;5085603;28;20028;-30
2021/12/05 03:40:33;;;;;;;3.47;2.90;;;;;;;;;;5085294;28;20254;-34
2021/12/05 03:43:00;;;;;;;3.90;3.30;;;;;;;;;;5085600;28;20020;-34
2021/12/05 03:45:32;;;;;;;5.03;3.60;;;;;;;;;;5085162;28;20444;-33
2021/12/05 03:47:57;;;;;;;3.45;3.03;;;;;;;;;;5085823;28;20078;-31
2021/12/05 03:50:23;;;;;;;4.00;2.83;;;;;;;;;;5085465;28;20024;-30
2021/12/05 03:52:48;;;;;;;3.45;2.80;;;;;;;;;;5084864;28;20027;-34
2021/12/05 03:55:15;;;;;;;3.97;3.13;;;;;;;;;;5084887;28;20024;-32
2021/12/05 03:57:40;;;;;;;5.00;3.30;;;;;;;;;;5086103;28;20028;-32
2021/12/05 04:00:12;;;;;;;3.90;2.90;;;;;;;;;;5085496;28;20422;-32
2021/12/05 04:02:37;;;;;;;3.17;2.75;;;;;;;;;;5084924;28;20405;-33
2021/12/05 04:05:03;;;;;;;3.90;2.95;;;;;;;;;;5084476;28;20020;-31
2021/12/05 04:07:28;;;;;;;3.53;3.13;;;;;;;;;;5084784;28;20050;-32
2021/12/05 04:09:54;;;;;;;3.85;3.10;;;;;;;;;;5084973;28;20024;-33
2021/12/05 04:12:19;;;;;;;3.22;2.78;;;;;;;;;;5070425;28;20056;-30
2021/12/05 04:14:46;;;;;;;3.20;2.90;;;;;;;;;;5064600;28;20031;-32
2021/12/05 04:17:12;;;;;;;3.50;2.72;;;;;;;;;;5064972;28;20020;-33
2021/12/05 04:19:38;;;;;;;3.80;2.85;;;;;;;;;;5064224;28;20020;-30
2021/12/05 04:22:05;;;;;;;3.28;2.60;;;;;;;;;;5064383;28;20035;-29
2021/12/05 04:24:30;;;;;;;3.95;3.00;;;;;;;;;;5063952;28;20021;-31
2021/12/05 04:26:56;;;;;;;3.67;3.13;;;;;;;;;;5045545;28;20805;-35
2021/12/05 04:29:21;;;;;;;3.10;2.60;;;;;;;;;;5065179;28;20036;-31
2021/12/05 04:31:49;;;;;;;3.83;3.15;;;;;;;;;;5064646;28;20048;-28
2021/12/05 04:34:15;;;;;;;3.72;2.70;;;;;;;;;;5064260;28;20100;-30
2021/12/05 04:36:41;;;;;;;3.80;3.10;;;;;;;;;;5063871;28;20078;-30
2021/12/05 04:39:07;;;;;;;4.13;2.70;;;;;;;;;;5063936;28;20120;-36
2021/12/05 04:41:32;;;;;;;4.20;3.30;;;;;;;;;;5063938;28;20025;-31
2021/12/05 04:43:58;;;;;;;3.70;3.08;;;;;;;;;;5046517;28;20046;-33
2021/12/05 04:46:24;;;;;;;3.60;3.20;;;;;;;;;;5062516;28;20121;-30
2021/12/05 04:48:51;;;;;;;3.70;2.72;;;;;;;;;;5063930;28;20020;-33
2021/12/05 04:51:19;;;;;;;3.65;2.92;;;;;;;;;;5064316;28;20037;-32
2021/12/05 04:53:44;;;;;;;3.33;2.80;;;;;;;;;;5063869;28;20060;-37
2021/12/05 04:56:10;;;;;;;3.60;2.55;;;;;;;;;;5063943;28;20549;-34
2021/12/05 04:58:36;;;;;;;3.17;2.45;;;;;;;;;;5063589;28;20114;-32
2021/12/05 05:01:01;;;;;;;4.07;2.63;;;;;;;;;;5063843;28;20085;-31
2021/12/05 05:03:27;;;;;;;4.72;3.00;;;;;;;;;;5063763;28;20109;-34
2021/12/05 05:06:15;;;;;;;5.03;3.05;;;;;;;;;;5064057;28;20067;-33
2021/12/05 05:08:44;;;;;;;3.72;3.08;;;;;;;;;;5063495;28;20143;-31
2021/12/05 05:11:11;;;;;;;3.58;2.97;;;;;;;;;;5066756;28;20043;-31
2021/12/05 05:13:37;;;;;;;3.58;2.70;;;;;;;;;;5083509;28;20030;-32
2021/12/05 05:16:06;;;;;;;2.78;2.38;;;;;;;;;;5083687;28;20028;-30
2021/12/05 05:18:43;;;;;;;3.45;2.63;;;;;;;;;;5083389;28;20020;-29
2021/12/05 05:49:57;;;;;;;3.13;2.42;;;;;;;;;;5082961;28;20031;-31
2021/12/05 05:52:22;;;;;;;2.85;2.50;;;;;;;;;;5082749;28;20068;-32
2021/12/05 05:54:49;;;;;;;4.25;2.60;;;;;;;;;;5082684;28;20144;-29
2021/12/05 05:57:25;;;;;;;3.50;2.58;;;;;;;;;;5082889;28;20024;-30
2021/12/05 06:00:13;;;;;;;3.10;2.60;;;;;;;;;;5082979;28;20036;-30
2021/12/05 06:05:23;;;;;;;3.10;2.40;;;;;;;;;;5083447;28;20127;-30
2021/12/05 06:07:49;;;;;;;4.50;2.78;;;;;;;;;;5062957;28;20025;-33
2021/12/05 06:10:17;;;;;;;3.92;2.60;;;;;;;;;;5062882;28;20032;-30
2021/12/05 06:12:42;;;;;;;3.63;2.80;;;;;;;;;;5080082;28;20024;-32
2021/12/05 06:15:09;;;;;;;3.30;2.80;;;;;;;;;;5083304;28;20040;-31
2021/12/05 06:17:35;;;;;;;3.17;2.70;;;;;;;;;;5083183;28;20034;-31
2021/12/05 06:20:01;;;;;;;3.28;2.58;;;;;;;;;;5072151;28;20788;-32
2021/12/05 06:22:27;;;;;;;3.85;3.05;;;;;;;;;;5062138;28;20055;-35
2021/12/05 06:24:52;;;;;;;3.65;2.83;;;;;;;;;;5062730;28;20042;-35
2021/12/05 06:27:18;;;;;;;3.60;2.88;;;;;;;;;;5062469;28;20106;-30
2021/12/05 06:29:57;;;;;;;3.78;3.05;;;;;;;;;;5062128;28;20498;-30
2021/12/05 06:38:10;;;;;;;4.07;2.70;;;;;;;;;;5062760;28;20043;-30
2021/12/05 06:40:58;;;;;;;3.50;3.08;;;;;;;;;;5062286;28;20032;-35
2021/12/05 06:48:37;;;;;;;3.15;2.70;;;;;;;;;;5062869;28;20076;-28
2021/12/05 06:51:03;;;;;;;3.67;2.83;;;;;;;;;;5065241;28;20198;-31
2021/12/05 06:53:29;;;;;;;3.67;2.53;;;;;;;;;;5065867;28;20031;-33
2021/12/05 06:55:54;;;;;;;5.00;2.90;;;;;;;;;;5066422;28;20025;-30
2021/12/05 06:58:20;;;;;;;4.82;2.90;;;;;;;;;;5064496;28;20055;-34
2021/12/05 07:00:45;;;;;;;4.20;2.95;;;;;;;;;;5065795;28;20059;-34
2021/12/05 07:03:11;;;;;;;2.90;2.50;;;;;;;;;;5065923;28;20348;-32
2021/12/05 07:05:49;;;;;;;2.63;2.35;;;;;;;;;;5065559;28;20101;-32
2021/12/05 07:08:16;;;;;;;3.25;2.53;;;;;;;;;;5065913;28;20187;-33
2021/12/05 07:11:01;;;;;;;2.90;2.55;;;;;;;;;;5066139;28;20040;-30
2021/12/05 07:21:46;;;;;;;3.05;2.65;;;;;;;;;;5065553;28;20039;-28
2021/12/05 07:40:26;;;;;;;3.65;2.45;;;;;;;;;;5065347;28;20043;-31
2021/12/05 07:42:53;;;;;;;3.88;2.60;;;;;;;;;;5065267;28;20097;-32
2021/12/05 07:45:27;;;;;;;4.03;2.78;;;;;;;;;;5065037;28;20032;-29
2021/12/05 07:47:55;;;;;;;3.92;2.90;;;;;;;;;;5064974;28;20047;-33
2021/12/05 07:50:29;;;;;;;3.38;2.40;;;;;;;;;;5065222;28;20116;-30
2021/12/05 07:53:03;;;;;;;4.88;3.15;;;;;;;;;;5065086;28;20062;-32
2021/12/05 07:55:36;;;;;;;3.25;2.80;;;;;;;;;;5065092;28;20141;-32
2021/12/05 08:16:34;;;;;;;4.40;3.35;;;;;;;;;;5084644;28;20040;-32
2021/12/05 08:19:00;;;;;;;3.35;2.88;;;;;;;;;;5084931;28;20044;-30
2021/12/05 08:21:25;;;;;;;2.88;2.42;;;;;;;;;;5084506;28;20024;-33
2021/12/05 08:23:51;;;;;;;3.28;2.90;;;;;;;;;;5066244;28;20117;-30
2021/12/05 08:26:21;;;;;;;4.78;3.47;;;;;;;;;;5084420;28;20510;-32
2021/12/05 08:32:13;;;;;;;4.38;3.53;;;;;;;;;;5073060;28;20036;-32
2021/12/05 08:34:10;;;;;;;3.63;3.17;;;;;;;;;;5060778;28;20517;-28
2021/12/05 09:39:08;;;;;;;4.00;3.60;;;;;;;;;;5067883;28;20119;-28
2021/12/05 10:06:45;;;;;;;4.00;3.60;;;;;;;;;;5083056;28;20059;-31
2021/12/05 10:09:20;;;;;;;3.35;3.05;;;;;;;;;;5082902;28;20390;-34
2021/12/05 10:12:03;;;;;;;3.80;3.40;;;;;;;;;;5091624;28;20039;-33
2021/12/05 10:15:17;;;;;;;4.18;3.53;;;;;;;;;;5097166;28;20039;-28
2021/12/05 10:17:38;;;;;;;4.30;3.65;;;;;;;;;;5085845;28;20434;-29
2021/12/05 10:34:44;;;;;;;3.72;3.22;;;;;;;;;;5103125;28;20088;-31
2021/12/05 10:37:16;;;;;;;4.65;3.60;;;;;;;;;;5102779;28;20094;-31
2021/12/05 10:39:41;;;;;;;3.85;3.33;;;;;;;;;;5102551;28;20044;-32
2021/12/05 10:42:39;;;;;;;4.07;3.10;;;;;;;;;;5102981;28;20061;-37
2021/12/05 10:45:35;;;;;;;3.83;3.38;;;;;;;;;;5103635;28;20039;-30
2021/12/05 10:48:09;;;;;;;4.03;3.03;;;;;;;;;;5103058;28;20064;-30
2021/12/05 10:50:43;;;;;;;4.45;3.45;;;;;;;;;;5102665;28;20493;-30
2021/12/05 10:53:23;;;;;;;3.35;3.05;;;;;;;;;;5102647;28;20027;-31
2021/12/05 10:56:10;;;;;;;3.55;2.80;;;;;;;;;;5102377;28;20035;-30
2021/12/05 10:58:43;;;;;;;3.53;3.00;;;;;;;;;;5102294;28;20019;-31
2021/12/05 11:01:28;;;;;;;6.45;3.40;;;;;;;;;;5102747;28;20056;-29
2021/12/05 11:04:03;;;;;;;3.88;3.40;;;;;;;;;;5102533;28;20114;-31
2021/12/05 11:06:31;;;;;;;4.05;3.22;;;;;;;;;;5102171;28;20023;-32
2021/12/05 11:09:09;;;;;;;4.53;3.20;;;;;;;;;;5102959;28;20027;-30
2021/12/05 11:11:35;;;;;;;4.57;3.45;;;;;;;;;;5089357;28;20425;-32
2021/12/05 11:14:03;;;;;;;3.35;2.78;;;;;;;;;;5082214;28;20044;-29
2021/12/05 11:16:31;;;;;;;3.53;2.78;;;;;;;;;;5077229;28;20039;-31
2021/12/05 11:18:57;;;;;;;3.63;2.90;;;;;;;;;;5062272;28;20032;-31
2021/12/05 11:21:30;;;;;;;3.40;3.00;;;;;;;;;;5062335;28;20035;-30
2021/12/05 11:24:37;;;;;;;3.05;2.70;;;;;;;;;;5062367;28;20093;-30
2021/12/05 11:27:20;;;;;;;5.63;3.20;;;;;;;;;;5059601;28;20032;-30
2021/12/05 11:29:50;;;;;;;3.80;3.00;;;;;;;;;;5061966;28;20040;-32
2021/12/05 11:32:33;;;;;;;3.30;2.92;;;;;;;;;;5061934;28;20038;-31
2021/12/05 11:35:08;;;;;;;4.30;3.20;;;;;;;;;;5062234;28;20033;-36
2021/12/05 11:37:57;;;;;;;3.63;3.03;;;;;;;;;;5063623;28;20047;-32
2021/12/05 11:40:25;;;;;;;4.35;3.00;;;;;;;;;;5065205;28;20035;-33
2021/12/05 11:43:02;;;;;;;3.25;2.83;;;;;;;;;;5065248;28;20027;-32
2021/12/05 11:45:29;;;;;;;3.35;2.80;;;;;;;;;;5065211;28;20486;-29
2021/12/05 11:47:54;;;;;;;3.28;2.80;;;;;;;;;;5065281;28;20107;-34
2021/12/05 11:50:30;;;;;;;3.85;3.00;;;;;;;;;;5065074;28;20036;-31
2021/12/05 11:52:55;;;;;;;4.68;3.05;;;;;;;;;;5065124;28;20040;-32
2021/12/05 11:55:22;;;;;;;5.07;3.00;;;;;;;;;;5065549;28;20090;-33
2021/12/05 11:57:48;;;;;;;3.20;2.90;;;;;;;;;;5064716;28;20024;-31
2021/12/05 12:00:17;;;;;;;3.65;3.03;;;;;;;;;;5064723;28;20049;-28
2021/12/05 12:02:44;;;;;;;4.30;3.10;;;;;;;;;;5064693;28;20029;-31
2021/12/05 12:05:17;;;;;;;3.45;2.88;;;;;;;;;;5064838;28;20032;-30
2021/12/05 12:07:45;;;;;;;3.38;2.70;;;;;;;;;;5064906;28;20064;-36
2021/12/05 12:10:11;;;;;;;3.00;2.58;;;;;;;;;;5066297;28;20139;-30
2021/12/05 12:12:41;;;;;;;4.13;2.90;;;;;;;;;;5084113;28;20130;-31
2021/12/05 12:15:07;;;;;;;5.28;2.88;;;;;;;;;;5085047;28;20062;-32
2021/12/05 12:17:33;;;;;;;2.65;2.40;;;;;;;;;;5085349;28;20106;-29
2021/12/05 12:19:58;;;;;;;3.33;2.80;;;;;;;;;;5084573;28;20028;-30
2021/12/05 12:22:26;;;;;;;3.30;2.88;;;;;;;;;;5084629;28;20024;-31
2021/12/05 12:24:54;;;;;;;3.03;2.53;;;;;;;;;;5084947;28;20064;-32
2021/12/05 12:27:20;;;;;;;3.88;2.75;;;;;;;;;;5084202;28;20039;-31
2021/12/05 12:29:45;;;;;;;3.42;2.58;;;;;;;;;;5084544;28;20020;-31
2021/12/05 12:32:15;;;;;;;3.42;2.63;;;;;;;;;;5049683;28;20148;-32
2021/12/05 12:34:40;;;;;;;4.40;2.85;;;;;;;;;;5084493;28;20050;-32
2021/12/05 12:37:06;;;;;;;3.40;2.83;;;;;;;;;;5065893;28;20721;-32
2021/12/05 12:39:41;;;;;;;3.72;3.00;;;;;;;;;;5084384;28;20165;-30
2021/12/05 12:42:18;;;;;;;4.22;2.90;;;;;;;;;;5084696;28;20941;-31
2021/12/05 12:45:15;;;;;;;3.15;2.75;;;;;;;;;;5084019;28;20061;-29
2021/12/05 12:47:54;;;;;;;3.95;3.00;;;;;;;;;;5083661;28;20028;-31
2021/12/05 12:50:20;;;;;;;3.00;2.70;;;;;;;;;;5084138;28;20529;-34
2021/12/05 12:53:26;;;;;;;3.22;2.78;;;;;;;;;;5083853;28;20031;-34
2021/12/05 12:56:03;;;;;;;3.30;2.67;;;;;;;;;;5084593;28;20032;-29
2021/12/05 12:58:38;;;;;;;3.00;2.25;;;;;;;;;;5083828;28;20023;-31
2021/12/05 13:01:30;;;;;;;4.25;3.30;;;;;;;;;;5083983;28;20039;-30
2021/12/05 13:12:32;;;;;;;3.35;2.78;;;;;;;;;;5062795;28;20426;-31
2021/12/05 13:15:06;;;;;;;3.30;2.53;;;;;;;;;;5063825;28;20024;-31
2021/12/05 13:17:40;;;;;;;3.30;2.80;;;;;;;;;;5063659;28;20036;-29
2021/12/05 13:20:07;;;;;;;4.38;2.63;;;;;;;;;;5063194;28;20518;-29
2021/12/05 13:22:32;;;;;;;4.30;2.85;;;;;;;;;;5062888;28;20424;-30
2021/12/05 13:25:06;;;;;;;3.20;2.58;;;;;;;;;;5067403;28;20513;-31
2021/12/05 13:27:32;;;;;;;3.28;2.58;;;;;;;;;;5061490;28;20059;-33
2021/12/05 13:29:58;;;;;;;3.60;2.55;;;;;;;;;;5063142;28;20047;-30
2021/12/05 13:32:32;;;;;;;3.67;2.67;;;;;;;;;;5063241;28;20036;-30
2021/12/05 13:35:00;;;;;;;3.05;2.40;;;;;;;;;;5063077;28;20029;-29
2021/12/05 13:37:32;;;;;;;3.20;2.58;;;;;;;;;;5062953;28;20072;-33
2021/12/05 13:40:11;;;;;;;3.72;2.92;;;;;;;;;;5063135;28;20032;-30
2021/12/05 13:42:42;;;;;;;3.10;2.70;;;;;;;;;;5062507;28;20040;-31
2021/12/05 13:45:26;;;;;;;4.15;2.92;;;;;;;;;;5062844;28;20048;-28
2021/12/05 13:47:52;;;;;;;4.05;2.70;;;;;;;;;;5062776;28;20036;-34
2021/12/05 13:50:27;;;;;;;4.28;2.80;;;;;;;;;;5063022;28;20033;-29
2021/12/05 13:52:59;;;;;;;3.75;2.60;;;;;;;;;;5063389;28;20102;-29
2021/12/05 13:55:40;;;;;;;3.08;2.47;;;;;;;;;;5062769;28;20115;-34
2021/12/05 13:58:20;;;;;;;4.13;2.72;;;;;;;;;;5062970;28;20036;-33
2021/12/05 14:00:51;;;;;;;3.22;2.55;;;;;;;;;;5062032;28;20031;-30
2021/12/05 14:03:48;;;;;;;3.10;2.50;;;;;;;;;;5063051;28;20028;-31
2021/12/05 14:06:58;;;;;;;2.90;2.50;;;;;;;;;;5062963;28;20464;-30
2021/12/05 14:09:37;;;;;;;3.60;2.72;;;;;;;;;;5062623;28;20109;-32
2021/12/05 14:12:13;;;;;;;2.95;2.60;;;;;;;;;;5043931;28;20032;-29
2021/12/05 14:14:48;;;;;;;3.22;2.60;;;;;;;;;;5042470;28;20415;-32
2021/12/05 14:17:25;;;;;;;3.65;2.88;;;;;;;;;;5042803;28;20049;-31
2021/12/05 14:20:17;;;;;;;4.65;3.22;;;;;;;;;;5042642;28;20079;-30
2021/12/05 14:22:44;;;;;;;4.50;3.08;;;;;;;;;;5040094;28;20033;-32
2021/12/05 14:25:12;;;;;;;3.67;2.90;;;;;;;;;;5040614;28;20511;-30
2021/12/05 14:27:40;;;;;;;3.65;2.75;;;;;;;;;;5047215;28;20137;-32
2021/12/05 14:30:09;;;;;;;4.38;2.90;;;;;;;;;;5069076;28;20024;-29
2021/12/05 14:32:36;;;;;;;3.33;2.78;;;;;;;;;;5062077;28;20106;-28
2021/12/05 14:35:09;;;;;;;3.15;2.72;;;;;;;;;;5062213;28;20035;-30
2021/12/05 14:37:35;;;;;;;3.97;3.05;;;;;;;;;;5072248;28;20028;-28
2021/12/05 14:40:08;;;;;;;3.80;3.10;;;;;;;;;;5082520;28;20417;-35
2021/12/05 14:42:34;;;;;;;3.78;2.95;;;;;;;;;;5082495;28;20031;-33
2021/12/05 14:45:15;;;;;;;3.63;2.85;;;;;;;;;;5082862;28;20097;-30
2021/12/05 14:47:42;;;;;;;3.25;2.95;;;;;;;;;;5064416;28;20043;-29
2021/12/05 14:50:13;;;;;;;5.80;3.15;;;;;;;;;;5082815;28;20060;-33
2021/12/05 14:52:40;;;;;;;3.33;2.67;;;;;;;;;;5082464;28;20042;-33
2021/12/05 14:55:08;;;;;;;4.05;2.83;;;;;;;;;;5082779;28;20077;-30
2021/12/05 14:57:39;;;;;;;3.80;2.85;;;;;;;;;;5082030;28;20032;-30
2021/12/05 15:00:15;;;;;;;4.78;2.70;;;;;;;;;;5082257;28;20024;-32
2021/12/05 15:02:40;;;;;;;4.30;3.10;;;;;;;;;;5082150;28;20056;-27
2021/12/05 15:05:14;;;;;;;3.65;3.20;;;;;;;;;;5082150;28;20059;-34
2021/12/05 15:07:40;;;;;;;3.03;2.63;;;;;;;;;;5082153;28;20111;-34
2021/12/05 15:10:06;;;;;;;3.35;2.72;;;;;;;;;;5081441;28;20028;-32
2021/12/05 15:12:33;;;;;;;3.47;3.08;;;;;;;;;;5085119;28;20116;-31
2021/12/05 15:15:06;;;;;;;3.13;2.72;;;;;;;;;;5086055;28;20028;-37
2021/12/05 15:17:35;;;;;;;3.58;2.67;;;;;;;;;;5086087;28;20553;-32
2021/12/05 15:20:06;;;;;;;3.15;2.70;;;;;;;;;;5086297;28;20028;-29
2021/12/05 15:22:32;;;;;;;3.47;2.58;;;;;;;;;;5085832;28;20032;-34
2021/12/05 15:25:09;;;;;;;3.67;2.75;;;;;;;;;;5085939;28;20085;-28
2021/12/05 15:27:35;;;;;;;3.70;2.67;;;;;;;;;;5067412;28;20071;-34
2021/12/05 15:30:11;;;;;;;3.72;2.83;;;;;;;;;;5086397;28;20423;-30
2021/12/05 15:32:36;;;;;;;4.10;2.70;;;;;;;;;;5085493;28;20040;-30
2021/12/05 15:35:06;;;;;;;3.40;2.85;;;;;;;;;;5086012;28;20559;-31
2021/12/05 15:37:32;;;;;;;3.72;2.90;;;;;;;;;;5085615;28;20071;-35
2021/12/05 15:39:58;;;;;;;3.42;2.75;;;;;;;;;;5085590;28;20059;-34
2021/12/05 15:42:35;;;;;;;3.13;2.50;;;;;;;;;;5085727;28;20811;-30
2021/12/05 15:45:04;;;;;;;3.17;2.88;;;;;;;;;;5085635;28;20568;-29
2021/12/05 15:47:31;;;;;;;3.40;2.80;;;;;;;;;;5085538;28;20027;-33
2021/12/05 15:49:59;;;;;;;3.63;2.63;;;;;;;;;;5067190;28;20036;-30
2021/12/05 15:52:37;;;;;;;3.58;2.97;;;;;;;;;;5085319;28;20485;-31
2021/12/05 15:55:27;;;;;;;5.28;2.53;;;;;;;;;;5085114;28;20028;-35
2021/12/05 15:58:18;;;;;;;3.03;2.40;;;;;;;;;;5070810;28;20064;-30
2021/12/05 16:01:21;;;;;;;3.33;2.80;;;;;;;;;;5085007;28;20032;-34
2021/12/05 16:03:51;;;;;;;3.65;2.90;;;;;;;;;;5065021;28;20028;-30
2021/12/05 16:06:18;;;;;;;3.83;2.72;;;;;;;;;;5064858;28;20900;-32
2021/12/05 16:08:47;;;;;;;4.03;3.00;;;;;;;;;;5064499;28;20031;-30
2021/12/05 16:11:14;;;;;;;3.58;2.97;;;;;;;;;;5078200;28;20067;-34
2021/12/05 16:13:42;;;;;;;3.75;2.78;;;;;;;;;;5085338;28;20032;-33
2021/12/05 16:16:12;;;;;;;3.83;2.90;;;;;;;;;;5085336;28;20555;-31
2021/12/05 16:18:38;;;;;;;3.50;2.70;;;;;;;;;;5084566;28;20054;-31
2021/12/05 16:21:29;;;;;;;4.68;2.80;;;;;;;;;;5084681;28;20082;-28
2021/12/05 16:24:04;;;;;;;3.35;2.53;;;;;;;;;;5084170;28;20036;-30
2021/12/05 16:26:30;;;;;;;3.38;2.65;;;;;;;;;;5084846;28;20069;-32
2021/12/05 16:29:00;;;;;;;3.33;2.88;;;;;;;;;;5084335;28;20788;-30
2021/12/05 16:31:30;;;;;;;3.35;2.80;;;;;;;;;;5083881;28;20028;-31
2021/12/05 16:34:06;;;;;;;4.28;3.22;;;;;;;;;;5068017;28;20145;-29
2021/12/05 16:36:36;;;;;;;7.70;4.57;;;;;;;;;;5081404;28;20903;-33
2021/12/05 16:39:13;;;;;;;9.32;6.35;;;;;;;;;;5082721;28;20043;-33
2021/12/05 16:41:46;;;;;;;12.13;6.28;;;;;;;;;;5081486;28;20054;-29
2021/12/05 16:44:19;;;;;;;8.88;5.78;;;;;;;;;;5083473;28;20845;-28
2021/12/05 16:46:47;;;;;;;11.63;5.82;;;;;;;;;;5083676;28;20089;-29
2021/12/05 16:49:21;;;;;;;10.57;5.63;;;;;;;;;;5083729;28;20043;-32
2021/12/05 16:51:51;;;;;;;8.60;6.22;;;;;;;;;;5081469;28;20093;-29
2021/12/05 16:54:23;;;;;;;13.63;5.25;;;;;;;;;;5079700;28;20043;-29
2021/12/05 16:56:57;;;;;;;17.88;8.10;;;;;;;;;;5077057;28;20234;-33
2021/12/05 16:59:23;;;;;;;15.15;7.55;;;;;;;;;;5064108;28;20098;-31
2021/12/05 17:02:10;;;;;;;15.88;7.43;;;;;;;;;;5072236;28;20048;-30
2021/12/05 17:04:43;;;;;;;35.05;15.55;;;;;;;;;;5078911;28;20028;-32
2021/12/05 17:07:13;;;;;;;43.92;20.25;;;;;;;;;;5083518;28;20099;-31
2021/12/05 17:09:39;;;;;;;33.75;14.65;;;;;;;;;;5082534;28;20084;-30
2021/12/05 17:12:04;;;;;;;43.28;18.98;;;;;;;;;;5083378;28;20475;-33
2021/12/05 17:14:30;;;;;;;34.45;16.35;;;;;;;;;;5083453;28;20804;-30
2021/12/05 17:16:56;;;;;;;28.27;15.05;;;;;;;;;;5083019;28;20402;-29
2021/12/05 17:19:24;;;;;;;26.95;14.25;;;;;;;;;;5056445;28;20033;-32
2021/12/05 17:21:50;;;;;;;26.52;14.15;;;;;;;;;;5079391;28;20043;-30
2021/12/05 17:24:27;;;;;;;21.95;14.13;;;;;;;;;;5083366;28;20089;-28
2021/12/05 17:27:03;;;;;;;24.25;13.80;;;;;;;;;;5082945;28;20665;-29
2021/12/05 17:29:33;;;;;;;24.60;14.40;;;;;;;;;;5083805;28;20093;-32
2021/12/05 17:32:05;;;;;;;24.10;14.07;;;;;;;;;;5082985;28;20098;-30
2021/12/05 17:34:51;;;;;;;22.17;13.90;;;;;;;;;;5065068;28;20032;-30
2021/12/05 17:37:23;;;;;;;25.08;13.23;;;;;;;;;;5083424;28;20197;-32
2021/12/05 17:39:49;;;;;;;19.45;12.90;;;;;;;;;;5064444;28;20107;-28
2021/12/05 17:42:19;;;;;;;19.88;13.13;;;;;;;;;;5082978;28;20212;-34
2021/12/05 17:44:45;;;;;;;21.27;13.77;;;;;;;;;;5083070;28;20097;-30
2021/12/05 17:47:12;;;;;;;22.95;13.07;;;;;;;;;;5083262;28;20040;-33
2021/12/05 17:49:39;;;;;;;20.70;13.07;;;;;;;;;;5082786;28;20039;-31
2021/12/05 17:52:05;;;;;;;20.25;14.00;;;;;;;;;;5083325;28;20052;-31
2021/12/05 17:54:40;;;;;;;21.05;13.05;;;;;;;;;;5082903;28;20032;-35
2021/12/05 17:57:10;;;;;;;21.67;13.77;;;;;;;;;;5083157;28;20030;-30
2021/12/05 18:05:35;;;;;;;35.35;22.23;;;;;;;;;;5006701;28;20036;-31
2021/12/05 18:08:13;;;;;;;33.42;21.90;;;;;;;;;;5071425;28;20028;-29
2021/12/05 18:10:42;;;;;;;36.33;21.90;;;;;;;;;;5082471;28;20032;-31
2021/12/05 18:13:10;;;;;;;33.88;21.95;;;;;;;;;;5082747;28;20417;-34
2021/12/05 18:15:36;;;;;;;32.13;19.52;;;;;;;;;;5082765;28;20028;-30
2021/12/05 18:18:03;;;;;;;30.25;19.42;;;;;;;;;;5083009;28;20070;-32
2021/12/05 18:20:29;;;;;;;29.50;18.40;;;;;;;;;;5082426;28;20028;-33
2021/12/05 18:22:56;;;;;;;28.67;16.83;;;;;;;;;;5082253;28;20070;-31
2021/12/05 18:25:22;;;;;;;25.52;16.80;;;;;;;;;;5064746;28;20104;-30
2021/12/05 18:27:48;;;;;;;24.70;16.27;;;;;;;;;;5079953;28;20706;-32
2021/12/05 18:30:14;;;;;;;26.52;15.88;;;;;;;;;;5076778;28;20034;-32
2021/12/05 18:32:40;;;;;;;27.85;16.23;;;;;;;;;;5081849;28;20048;-28
2021/12/05 18:35:06;;;;;;;28.52;15.90;;;;;;;;;;5079222;28;20196;-33
2021/12/05 18:37:32;;;;;;;26.40;15.07;;;;;;;;;;5082628;28;20597;-28
2021/12/05 18:39:57;;;;;;;22.10;15.18;;;;;;;;;;5082742;28;20052;-35
2021/12/05 18:42:23;;;;;;;24.98;15.10;;;;;;;;;;5072549;28;20098;-32
2021/12/05 18:44:54;;;;;;;25.98;15.10;;;;;;;;;;5061900;28;20056;-35
2021/12/05 18:47:20;;;;;;;24.52;15.70;;;;;;;;;;5065924;28;20029;-32
2021/12/05 18:49:46;;;;;;;25.50;15.50;;;;;;;;;;5066550;28;20031;-30
2021/12/05 18:52:11;;;;;;;23.45;15.23;;;;;;;;;;5074172;28;20058;-33
2021/12/05 18:54:42;;;;;;;25.73;16.60;;;;;;;;;;5086556;28;20035;-35
2021/12/05 18:57:10;;;;;;;24.35;14.90;;;;;;;;;;5086275;28;20035;-29
2021/12/05 18:59:38;;;;;;;24.38;15.23;;;;;;;;;;5085872;28;20089;-30
2021/12/05 19:04:53;;;;;;;25.05;14.80;;;;;;;;;;5065176;28;20051;-34
2021/12/05 19:07:26;;;;;;;22.52;15.90;;;;;;;;;;5067789;28;20043;-31
2021/12/05 19:12:36;;;;;;;25.75;14.93;;;;;;;;;;5085697;28;20042;-29
2021/12/05 19:15:06;;;;;;;22.70;16.13;;;;;;;;;;5084805;28;20031;-30
2021/12/05 19:17:33;;;;;;;22.98;15.15;;;;;;;;;;5085607;28;20032;-32
2021/12/05 19:20:03;;;;;;;23.85;14.65;;;;;;;;;;5058174;28;20036;-31
2021/12/05 19:22:31;;;;;;;24.75;15.02;;;;;;;;;;5085785;28;20023;-31
2021/12/05 19:25:10;;;;;;;26.70;15.80;;;;;;;;;;5069242;28;20474;-31
2021/12/05 19:27:36;;;;;;;27.52;14.70;;;;;;;;;;5046171;28;20571;-30
2021/12/05 19:30:02;;;;;;;21.48;15.10;;;;;;;;;;5048763;28;20021;-32
2021/12/05 19:32:28;;;;;;;22.33;15.65;;;;;;;;;;5055556;28;20447;-30
2021/12/05 19:34:54;;;;;;;26.20;16.38;;;;;;;;;;5056150;28;20511;-31
2021/12/05 19:37:19;;;;;;;27.00;15.80;;;;;;;;;;5059786;28;20024;-32
2021/12/05 19:39:45;;;;;;;22.83;16.20;;;;;;;;;;5054134;28;20041;-30
2021/12/05 19:42:11;;;;;;;25.65;15.82;;;;;;;;;;5066051;28;20024;-30
2021/12/05 19:44:36;;;;;;;22.98;14.68;;;;;;;;;;5066638;28;20021;-33
2021/12/05 19:47:03;;;;;;;27.40;15.75;;;;;;;;;;5067468;28;20032;-31
2021/12/05 19:49:30;;;;;;;25.27;14.70;;;;;;;;;;5066251;28;20032;-31
2021/12/05 19:51:56;;;;;;;23.48;13.85;;;;;;;;;;5066703;28;20454;-31
2021/12/05 19:54:22;;;;;;;21.38;14.52;;;;;;;;;;5067119;28;20041;-32
2021/12/05 19:56:47;;;;;;;25.20;15.07;;;;;;;;;;5066810;28;20028;-30
2021/12/05 19:59:15;;;;;;;23.98;14.15;;;;;;;;;;5062744;28;20035;-30
2021/12/05 20:01:40;;;;;;;19.73;14.30;;;;;;;;;;5067181;28;20032;-30
2021/12/05 20:04:06;;;;;;;21.23;15.02;;;;;;;;;;5067221;28;20074;-28
2021/12/05 20:06:33;;;;;;;22.85;15.13;;;;;;;;;;5067049;28;20387;-29
2021/12/05 20:08:58;;;;;;;22.17;14.07;;;;;;;;;;5065888;28;20033;-29
2021/12/05 20:11:24;;;;;;;22.48;14.90;;;;;;;;;;5064939;28;20045;-28
2021/12/05 20:13:57;;;;;;;23.60;15.38;;;;;;;;;;5066019;28;20055;-33
2021/12/05 20:16:22;;;;;;;;;;;;;;;;;;5065840;28;20028;-30
2021/12/05 20:18:48;;;;;;;23.00;14.57;;;;;;;;;;5050381;28;19977;-31
2021/12/05 20:21:13;;;;;;;25.38;13.93;;;;;;;;;;5045229;28;20158;-33
2021/12/05 20:23:42;;;;;;;20.55;13.25;;;;;;;;;;5047789;28;20017;-28
2021/12/05 20:26:09;;;;;;;20.40;13.30;;;;;;;;;;5045514;28;20060;-29
2021/12/05 20:28:35;;;;;;;24.38;13.50;;;;;;;;;;5057571;28;20101;-30
2021/12/05 20:31:00;;;;;;;18.27;12.85;;;;;;;;;;5066286;28;20108;-28
2021/12/05 20:33:26;;;;;;;17.70;12.60;;;;;;;;;;5067218;28;20035;-35
2021/12/05 20:35:51;;;;;;;21.08;13.73;;;;;;;;;;5084835;28;20119;-28
2021/12/05 20:38:17;;;;;;;20.52;13.40;;;;;;;;;;5085085;28;20032;-30